• Join FlightAware (Why Join?)
  • Login
  • US Flag 
03:14AM EDT


 

Airport Tracker/Info


-or-


 

Live Flight TrackerFlight Track Log ✈ CES5389 ✈ 18-Jun-2013 ✈ ZSSS / SHA - ZHLY / LYA

Flight Track Log - Related Links

Times and Time Zones

All times are in EDT time to prevent confusion due to time zone crossing. See the CES5389 flight status page for this flight to view local times or setup timezone preferences in your user account.

Time Position Orientation Groundspeed Altitude Reporting Facility
EDT Latitude Longitude Course Direction KTS MPH feet Rate Location/Type
08:25PM 31.1830 121.1410 327° Northwest 291 335 10,200  Level FlightAware
08:25PM 31.2200 121.1190 333° Northwest 296 341 10,200  Level FlightAware
08:26PM 31.2410 121.1170 355° North 294 338 10,200  Level FlightAware
08:26PM 31.2880 121.1170 360° North 305 351 10,200 900 Level FlightAware
08:27PM 31.3630 121.1170 360° North 310 357 11,500 1,260 Climbing FlightAware
08:28PM 31.4260 121.1170 360° North 358 412 12,100 1,020 Climbing FlightAware
08:28PM 31.4900 121.0950 344° North 371 427 12,900 1,560 Climbing FlightAware
08:29PM 31.5540 121.0620 336° Northwest 377 434 14,300 1,920 Climbing FlightAware
08:30PM 31.6250 121.0240 336° Northwest 392 451 15,700 1,020 Climbing FlightAware
08:31PM 31.6800 120.9940 335° Northwest 392 451 15,700  Level FlightAware
08:31PM 31.7470 120.9570 335° Northwest 392 451 15,700  Level FlightAware
08:32PM 31.8000 120.9280 335° Northwest 392 451 15,700  Level FlightAware
08:33PM 31.8640 120.8930 335° Northwest 392 451 15,700  Level FlightAware
08:33PM 31.9140 120.8650 335° Northwest 392 451 15,700 960 Level FlightAware
08:36PM 32.0076 120.6171 294° West  Level Estimated
08:37PM 32.0509 120.5017 294° West  Level Estimated
08:38PM 32.0942 120.3861 294° West  Level Estimated
08:39PM 32.1373 120.2704 294° West  Level Estimated
08:39PM 32.2220 120.1140 294° West 431 496 22,200  Level FlightAware
08:40PM 32.1804 120.1546 294° West  Level Estimated
08:40PM 32.2300 120.0030 275° West 434 499 23,300  Level FlightAware
08:41PM 32.2370 119.9140 275° West 433 498 24,200 1,140 Climbing FlightAware
08:42PM 32.2440 119.8060 274° West 438 504 25,000 900 Climbing FlightAware
08:42PM 32.2280 119.7090 259° West 448 516 25,500 360 Climbing FlightAware
08:43PM 32.1960 119.5850 253° West 450 518 25,600  Climbing FlightAware
08:44PM 32.1560 119.4370 252° West 454 522 25,600  Level FlightAware
08:45PM 32.1250 119.3200 253° West 454 522 25,600  Level FlightAware
08:46PM 32.0940 119.2000 253° West 451 519 25,600  Level FlightAware
08:47PM 32.0640 119.0870 253° West 451 519 25,600  Level FlightAware
08:47PM 32.0460 119.0170 253° West 451 519 25,600  Level FlightAware
08:48PM 32.0210 118.9210 253° West 451 519 25,600  Level FlightAware
08:49PM 32.0020 118.8490 253° West 451 519 25,600  Level FlightAware
08:49PM 31.9820 118.7710 253° West 451 519 25,600  Level FlightAware
08:52PM 32.0911 118.5391 299° West  Level Estimated
08:53PM 32.1429 118.4285 299° West  Level Estimated
08:54PM 32.1946 118.3178 299° West  Level Estimated
08:55PM 32.2463 118.2069 299° West  Level Estimated
08:56PM 32.2978 118.0959 299° West  Level Estimated
08:57PM 32.3492 117.9848 299° West  Level Estimated
08:58PM 32.4005 117.8736 299° West  Level Estimated
08:59PM 32.4517 117.7622 299° West  Level Estimated
09:00PM 32.5029 117.6507 299° West  Level Estimated
09:01PM 32.5539 117.5391 298° West  Level Estimated
09:02PM 32.6048 117.4273 298° West  Level Estimated
09:03PM 32.6557 117.3154 298° West  Level Estimated
09:04PM 32.7064 117.2034 298° West  Level Estimated
09:05PM 32.7570 117.0913 298° West  Level Estimated
09:06PM 32.8075 116.9790 298° West  Level Estimated
09:07PM 32.8580 116.8667 298° West  Level Estimated
09:08PM 32.9083 116.7541 298° West  Level Estimated
09:09PM 32.9585 116.6415 298° West  Level Estimated
09:10PM 33.0087 116.5287 298° West  Level Estimated
09:11PM 33.0587 116.4158 298° West  Level Estimated
09:12PM 33.1086 116.3028 298° West  Level Estimated
09:13PM 33.1585 116.1896 298° West  Level Estimated
09:14PM 33.2082 116.0764 298° West  Level Estimated
09:15PM 33.2578 115.9630 298° West  Level Estimated
09:16PM 33.3073 115.8494 298° West  Level Estimated
09:17PM 33.3567 115.7357 298° West  Level Estimated
09:18PM 33.4060 115.6219 297° West  Level Estimated
09:19PM 33.4552 115.5080 297° West  Level Estimated
09:20PM 33.5040 115.3947 297° West  Level Estimated
09:21PM 33.5527 115.2812 297° West  Level Estimated
09:22PM 33.6013 115.1676 297° West  Level Estimated
09:23PM 33.6498 115.0538 297° West  Level Estimated
09:24PM 33.6982 114.9400 297° West  Level Estimated
09:25PM 33.7465 114.8260 297° West  Level Estimated
09:26PM 33.7946 114.7119 297° West  Level Estimated
09:27PM 33.8427 114.5976 297° West  Level Estimated
09:28PM 33.8907 114.4832 297° West  Level Estimated
09:29PM 33.9385 114.3687 297° West  Level Estimated
09:30PM 33.9863 114.2541 297° West  Level Estimated
09:31PM 34.0339 114.1394 297° West  Level Estimated
09:32PM 34.0815 114.0245 297° West  Level Estimated
09:33PM 34.1289 113.9094 297° West  Level Estimated
09:34PM 34.1762 113.7943 296° West  Level Estimated
09:35PM 34.2234 113.6790 296° West  Level Estimated
09:36PM 34.2705 113.5636 296° West  Level Estimated
09:37PM 34.3175 113.4481 296° West  Level Estimated
09:38PM 34.3644 113.3324 296° West  Level Estimated
09:39PM 34.4112 113.2166 296° West  Level Estimated
09:40PM 34.4579 113.1007 296° West  Level Estimated
09:41PM 34.5044 112.9846 296° West  Level Estimated
09:42PM 34.5509 112.8684 296° West  Level Estimated
09:43PM 34.5972 112.7521 296° West  Level Estimated
09:44PM 34.6377 112.6501 296° West  Level Estimated
09:45PM 34.6782 112.5480 296° West  Level Estimated
09:46PM 34.7185 112.4457 296° West  Level Estimated
09:47PM 34.7411 112.3883 296° West  Level Estimated
09:48PM 34.7411 112.3883 68° East  Level Estimated
09:49PM 34.7411 112.3883 68° East  Level Estimated
09:50PM 34.7411 112.3883 68° East  Level Estimated
09:51PM 34.7411 112.3883 68° East  Level Estimated
09:52PM 34.7411 112.3883 68° East  Level Estimated
09:53PM 34.7411 112.3883 68° East  Level Estimated
09:54PM 34.7411 112.3883 68° East  Level Estimated
09:55PM 34.7411 112.3883 68° East  Level Estimated
09:56PM 34.7411 112.3883 68° East  Level Estimated
09:57PM 34.7411 112.3883 68° East  Level Estimated
09:58PM 34.7411 112.3883 68° East  Level Estimated
09:59PM 34.7411 112.3883 68° East  Level Estimated
10:00PM 34.7411 112.3883 68° East  Level Estimated
10:01PM 34.7411 112.3883 68° East  Level Estimated
10:02PM 34.7411 112.3883 68° East  Level Estimated
10:03PM 34.7411 112.3883 68° East  Level Estimated
10:04PM 34.7411 112.3883 68° East  Level Estimated
10:05PM 34.7411 112.3883 68° East  Level Estimated
10:06PM 34.7411 112.3883 68° East  Level Estimated
10:07PM 34.7411 112.3883 68° East  Level Estimated
10:08PM 34.7411 112.3883 68° East  Level Estimated